sensor_id;sensor_type;location;lat;lon;timestamp;P1;durP1;ratioP1;P2;durP2;ratioP2
76610;SDS011;65503;48.534;9.062;2023-08-17T00:01:33;12.80;;;8.05;;
76610;SDS011;65503;48.534;9.062;2023-08-17T00:03:59;13.25;;;8.73;;
76610;SDS011;65503;48.534;9.062;2023-08-17T00:06:26;13.68;;;8.48;;
76610;SDS011;65503;48.534;9.062;2023-08-17T00:08:53;13.75;;;8.75;;
76610;SDS011;65503;48.534;9.062;2023-08-17T00:11:19;14.30;;;8.50;;
76610;SDS011;65503;48.534;9.062;2023-08-17T00:13:46;13.82;;;8.13;;
76610;SDS011;65503;48.534;9.062;2023-08-17T00:16:12;13.65;;;9.68;;
76610;SDS011;65503;48.534;9.062;2023-08-17T00:18:39;13.70;;;8.80;;
76610;SDS011;65503;48.534;9.062;2023-08-17T00:21:06;14.50;;;9.40;;
76610;SDS011;65503;48.534;9.062;2023-08-17T00:23:33;12.25;;;9.52;;
76610;SDS011;65503;48.534;9.062;2023-08-17T00:28:27;11.90;;;8.35;;
76610;SDS011;65503;48.534;9.062;2023-08-17T00:30:53;11.90;;;8.23;;
76610;SDS011;65503;48.534;9.062;2023-08-17T00:33:20;11.63;;;8.00;;
76610;SDS011;65503;48.534;9.062;2023-08-17T00:35:46;13.60;;;8.75;;
76610;SDS011;65503;48.534;9.062;2023-08-17T00:38:13;13.43;;;9.10;;
76610;SDS011;65503;48.534;9.062;2023-08-17T00:40:39;13.32;;;9.00;;
76610;SDS011;65503;48.534;9.062;2023-08-17T00:43:06;13.13;;;9.30;;
76610;SDS011;65503;48.534;9.062;2023-08-17T00:45:33;14.98;;;9.30;;
76610;SDS011;65503;48.534;9.062;2023-08-17T00:48:01;15.38;;;10.13;;
76610;SDS011;65503;48.534;9.062;2023-08-17T00:52:55;14.68;;;9.30;;
76610;SDS011;65503;48.534;9.062;2023-08-17T00:57:49;16.05;;;9.60;;
76610;SDS011;65503;48.534;9.062;2023-08-17T01:00:16;14.45;;;9.55;;
76610;SDS011;65503;48.534;9.062;2023-08-17T01:02:45;11.63;;;8.38;;
76610;SDS011;65503;48.534;9.062;2023-08-17T01:05:13;15.30;;;9.10;;
76610;SDS011;65503;48.534;9.062;2023-08-17T01:07:39;11.27;;;8.38;;
76610;SDS011;65503;48.534;9.062;2023-08-17T01:10:06;12.45;;;7.95;;
76610;SDS011;65503;48.534;9.062;2023-08-17T01:12:42;12.57;;;8.40;;
76610;SDS011;65503;48.534;9.062;2023-08-17T01:15:15;13.70;;;8.35;;
76610;SDS011;65503;48.534;9.062;2023-08-17T01:20:23;13.05;;;9.18;;
76610;SDS011;65503;48.534;9.062;2023-08-17T01:22:52;12.23;;;8.63;;
76610;SDS011;65503;48.534;9.062;2023-08-17T01:25:23;15.10;;;10.40;;
76610;SDS011;65503;48.534;9.062;2023-08-17T01:27:50;17.98;;;11.77;;
76610;SDS011;65503;48.534;9.062;2023-08-17T01:30:17;16.67;;;10.20;;
76610;SDS011;65503;48.534;9.062;2023-08-17T01:32:49;16.88;;;11.10;;
76610;SDS011;65503;48.534;9.062;2023-08-17T01:35:22;15.27;;;10.00;;
76610;SDS011;65503;48.534;9.062;2023-08-17T01:37:57;26.45;;;11.88;;
76610;SDS011;65503;48.534;9.062;2023-08-17T01:40:27;17.65;;;10.15;;
76610;SDS011;65503;48.534;9.062;2023-08-17T01:42:55;16.15;;;9.60;;
76610;SDS011;65503;48.534;9.062;2023-08-17T01:45:23;18.25;;;11.68;;
76610;SDS011;65503;48.534;9.062;2023-08-17T01:50:16;27.20;;;12.45;;
76610;SDS011;65503;48.534;9.062;2023-08-17T01:52:43;16.65;;;10.45;;
76610;SDS011;65503;48.534;9.062;2023-08-17T01:55:09;18.52;;;11.00;;
76610;SDS011;65503;48.534;9.062;2023-08-17T01:57:36;48.90;;;14.35;;
76610;SDS011;65503;48.534;9.062;2023-08-17T02:00:06;156.80;;;17.40;;
76610;SDS011;65503;48.534;9.062;2023-08-17T02:02:33;17.23;;;10.25;;
76610;SDS011;65503;48.534;9.062;2023-08-17T02:04:59;16.83;;;10.57;;
76610;SDS011;65503;48.534;9.062;2023-08-17T02:07:26;15.77;;;9.73;;
76610;SDS011;65503;48.534;9.062;2023-08-17T02:09:53;15.75;;;10.27;;
76610;SDS011;65503;48.534;9.062;2023-08-17T02:12:20;261.52;;;21.63;;
76610;SDS011;65503;48.534;9.062;2023-08-17T02:14:46;15.38;;;8.73;;
76610;SDS011;65503;48.534;9.062;2023-08-17T02:17:13;24.02;;;11.00;;
76610;SDS011;65503;48.534;9.062;2023-08-17T02:19:42;206.60;;;16.27;;
76610;SDS011;65503;48.534;9.062;2023-08-17T02:22:09;35.13;;;10.15;;
76610;SDS011;65503;48.534;9.062;2023-08-17T02:24:36;148.70;;;17.40;;
76610;SDS011;65503;48.534;9.062;2023-08-17T02:27:03;43.78;;;12.40;;
76610;SDS011;65503;48.534;9.062;2023-08-17T02:29:30;158.48;;;14.23;;
76610;SDS011;65503;48.534;9.062;2023-08-17T02:31:56;11.90;;;8.57;;
76610;SDS011;65503;48.534;9.062;2023-08-17T02:34:23;11.80;;;8.18;;
76610;SDS011;65503;48.534;9.062;2023-08-17T02:36:49;12.55;;;8.73;;
76610;SDS011;65503;48.534;9.062;2023-08-17T02:39:16;13.32;;;8.98;;
76610;SDS011;65503;48.534;9.062;2023-08-17T02:41:42;11.60;;;8.25;;
76610;SDS011;65503;48.534;9.062;2023-08-17T02:44:11;14.02;;;9.20;;
76610;SDS011;65503;48.534;9.062;2023-08-17T02:46:37;14.23;;;9.57;;
76610;SDS011;65503;48.534;9.062;2023-08-17T02:49:04;16.48;;;9.00;;
76610;SDS011;65503;48.534;9.062;2023-08-17T02:51:30;12.68;;;8.45;;
76610;SDS011;65503;48.534;9.062;2023-08-17T02:53:57;14.23;;;8.63;;
76610;SDS011;65503;48.534;9.062;2023-08-17T02:56:23;15.38;;;9.05;;
76610;SDS011;65503;48.534;9.062;2023-08-17T02:58:50;14.15;;;9.15;;
76610;SDS011;65503;48.534;9.062;2023-08-17T03:01:16;27.70;;;11.15;;
76610;SDS011;65503;48.534;9.062;2023-08-17T03:03:43;17.20;;;10.20;;
76610;SDS011;65503;48.534;9.062;2023-08-17T03:06:09;15.57;;;9.60;;
76610;SDS011;65503;48.534;9.062;2023-08-17T03:08:36;25.58;;;11.57;;
76610;SDS011;65503;48.534;9.062;2023-08-17T03:11:02;15.63;;;9.75;;
76610;SDS011;65503;48.534;9.062;2023-08-17T03:13:29;15.77;;;9.02;;
76610;SDS011;65503;48.534;9.062;2023-08-17T03:15:56;15.60;;;9.55;;
76610;SDS011;65503;48.534;9.062;2023-08-17T03:18:22;220.45;;;20.85;;
76610;SDS011;65503;48.534;9.062;2023-08-17T03:20:49;16.60;;;10.25;;
76610;SDS011;65503;48.534;9.062;2023-08-17T03:23:15;14.93;;;9.63;;
76610;SDS011;65503;48.534;9.062;2023-08-17T03:25:42;85.30;;;14.40;;
76610;SDS011;65503;48.534;9.062;2023-08-17T03:28:08;15.48;;;10.18;;
76610;SDS011;65503;48.534;9.062;2023-08-17T03:30:35;20.13;;;11.60;;
76610;SDS011;65503;48.534;9.062;2023-08-17T03:33:01;90.25;;;14.32;;
76610;SDS011;65503;48.534;9.062;2023-08-17T03:35:28;55.08;;;13.30;;
76610;SDS011;65503;48.534;9.062;2023-08-17T03:37:55;32.67;;;11.43;;
76610;SDS011;65503;48.534;9.062;2023-08-17T03:40:21;21.88;;;10.77;;
76610;SDS011;65503;48.534;9.062;2023-08-17T03:42:48;19.02;;;10.68;;
76610;SDS011;65503;48.534;9.062;2023-08-17T03:45:14;18.17;;;9.57;;
76610;SDS011;65503;48.534;9.062;2023-08-17T03:47:41;57.88;;;13.00;;
76610;SDS011;65503;48.534;9.062;2023-08-17T03:50:08;16.90;;;9.85;;
76610;SDS011;65503;48.534;9.062;2023-08-17T03:52:35;15.52;;;8.85;;
76610;SDS011;65503;48.534;9.062;2023-08-17T03:55:01;15.95;;;9.20;;
76610;SDS011;65503;48.534;9.062;2023-08-17T03:57:28;23.55;;;11.30;;
76610;SDS011;65503;48.534;9.062;2023-08-17T03:59:57;22.00;;;11.27;;
76610;SDS011;65503;48.534;9.062;2023-08-17T04:02:24;26.00;;;12.20;;
76610;SDS011;65503;48.534;9.062;2023-08-17T04:04:50;29.48;;;14.05;;
76610;SDS011;65503;48.534;9.062;2023-08-17T04:07:21;23.63;;;11.68;;
76610;SDS011;65503;48.534;9.062;2023-08-17T04:09:49;30.23;;;13.35;;
76610;SDS011;65503;48.534;9.062;2023-08-17T04:12:15;28.90;;;14.27;;
76610;SDS011;65503;48.534;9.062;2023-08-17T04:14:42;33.03;;;13.77;;
76610;SDS011;65503;48.534;9.062;2023-08-17T04:17:08;31.02;;;13.48;;
76610;SDS011;65503;48.534;9.062;2023-08-17T04:19:35;22.27;;;11.10;;
76610;SDS011;65503;48.534;9.062;2023-08-17T04:22:01;28.60;;;13.25;;
76610;SDS011;65503;48.534;9.062;2023-08-17T04:24:28;24.92;;;12.18;;
76610;SDS011;65503;48.534;9.062;2023-08-17T04:26:54;20.73;;;10.55;;
76610;SDS011;65503;48.534;9.062;2023-08-17T04:29:21;23.58;;;11.25;;
76610;SDS011;65503;48.534;9.062;2023-08-17T04:31:47;18.90;;;10.50;;
76610;SDS011;65503;48.534;9.062;2023-08-17T04:34:14;20.80;;;10.48;;
76610;SDS011;65503;48.534;9.062;2023-08-17T04:36:41;35.28;;;13.80;;
76610;SDS011;65503;48.534;9.062;2023-08-17T04:39:07;28.33;;;11.52;;
76610;SDS011;65503;48.534;9.062;2023-08-17T04:41:35;24.90;;;9.82;;
76610;SDS011;65503;48.534;9.062;2023-08-17T04:44:02;28.42;;;11.57;;
76610;SDS011;65503;48.534;9.062;2023-08-17T04:46:29;24.50;;;11.13;;
76610;SDS011;65503;48.534;9.062;2023-08-17T04:48:55;27.77;;;11.32;;
76610;SDS011;65503;48.534;9.062;2023-08-17T04:51:22;30.63;;;11.43;;
76610;SDS011;65503;48.534;9.062;2023-08-17T04:53:48;35.85;;;12.10;;
76610;SDS011;65503;48.534;9.062;2023-08-17T04:56:15;40.08;;;13.40;;
76610;SDS011;65503;48.534;9.062;2023-08-17T04:58:42;44.33;;;13.80;;
76610;SDS011;65503;48.534;9.062;2023-08-17T05:01:08;39.22;;;13.02;;
76610;SDS011;65503;48.534;9.062;2023-08-17T05:03:36;38.75;;;14.75;;
76610;SDS011;65503;48.534;9.062;2023-08-17T05:06:03;31.00;;;12.75;;
76610;SDS011;65503;48.534;9.062;2023-08-17T05:08:30;31.95;;;12.02;;
76610;SDS011;65503;48.534;9.062;2023-08-17T05:10:56;30.67;;;12.55;;
76610;SDS011;65503;48.534;9.062;2023-08-17T05:13:23;38.42;;;13.40;;
76610;SDS011;65503;48.534;9.062;2023-08-17T05:15:49;33.47;;;12.55;;
76610;SDS011;65503;48.534;9.062;2023-08-17T05:18:16;44.63;;;14.52;;
76610;SDS011;65503;48.534;9.062;2023-08-17T05:20:42;37.60;;;13.88;;
76610;SDS011;65503;48.534;9.062;2023-08-17T05:23:09;30.75;;;12.98;;
76610;SDS011;65503;48.534;9.062;2023-08-17T05:25:35;32.33;;;13.73;;
76610;SDS011;65503;48.534;9.062;2023-08-17T05:28:02;89.75;;;14.98;;
76610;SDS011;65503;48.534;9.062;2023-08-17T05:30:28;36.70;;;14.05;;
76610;SDS011;65503;48.534;9.062;2023-08-17T05:32:55;63.90;;;15.63;;
76610;SDS011;65503;48.534;9.062;2023-08-17T05:35:21;26.20;;;12.05;;
76610;SDS011;65503;48.534;9.062;2023-08-17T05:37:48;27.63;;;13.68;;
76610;SDS011;65503;48.534;9.062;2023-08-17T05:40:14;37.05;;;15.18;;
76610;SDS011;65503;48.534;9.062;2023-08-17T05:42:41;29.08;;;13.13;;
76610;SDS011;65503;48.534;9.062;2023-08-17T05:45:08;28.13;;;12.13;;
76610;SDS011;65503;48.534;9.062;2023-08-17T05:47:35;35.70;;;14.05;;
76610;SDS011;65503;48.534;9.062;2023-08-17T05:50:02;29.00;;;12.00;;
76610;SDS011;65503;48.534;9.062;2023-08-17T05:52:28;24.50;;;10.35;;
76610;SDS011;65503;48.534;9.062;2023-08-17T05:54:55;24.83;;;11.65;;
76610;SDS011;65503;48.534;9.062;2023-08-17T05:57:21;25.90;;;12.13;;
76610;SDS011;65503;48.534;9.062;2023-08-17T05:59:48;30.83;;;13.93;;
76610;SDS011;65503;48.534;9.062;2023-08-17T06:02:15;25.60;;;12.30;;
76610;SDS011;65503;48.534;9.062;2023-08-17T06:04:41;25.63;;;12.55;;
76610;SDS011;65503;48.534;9.062;2023-08-17T06:07:08;21.58;;;11.18;;
76610;SDS011;65503;48.534;9.062;2023-08-17T06:09:34;21.88;;;11.40;;
76610;SDS011;65503;48.534;9.062;2023-08-17T06:12:01;25.20;;;11.80;;
76610;SDS011;65503;48.534;9.062;2023-08-17T06:14:27;20.90;;;10.70;;
76610;SDS011;65503;48.534;9.062;2023-08-17T06:16:54;26.85;;;11.77;;
76610;SDS011;65503;48.534;9.062;2023-08-17T06:19:21;43.03;;;15.70;;
76610;SDS011;65503;48.534;9.062;2023-08-17T06:21:47;29.55;;;13.65;;
76610;SDS011;65503;48.534;9.062;2023-08-17T06:24:14;25.33;;;13.02;;
76610;SDS011;65503;48.534;9.062;2023-08-17T06:26:40;22.35;;;12.18;;
76610;SDS011;65503;48.534;9.062;2023-08-17T06:29:07;27.85;;;12.15;;
76610;SDS011;65503;48.534;9.062;2023-08-17T06:31:34;22.33;;;11.90;;
76610;SDS011;65503;48.534;9.062;2023-08-17T06:34:01;17.15;;;9.98;;
76610;SDS011;65503;48.534;9.062;2023-08-17T06:36:30;17.35;;;10.02;;
76610;SDS011;65503;48.534;9.062;2023-08-17T06:38:57;15.90;;;8.82;;
76610;SDS011;65503;48.534;9.062;2023-08-17T06:41:24;20.45;;;10.40;;
76610;SDS011;65503;48.534;9.062;2023-08-17T06:43:51;16.67;;;10.35;;
76610;SDS011;65503;48.534;9.062;2023-08-17T06:46:18;12.73;;;8.40;;
76610;SDS011;65503;48.534;9.062;2023-08-17T06:48:45;15.65;;;9.23;;
76610;SDS011;65503;48.534;9.062;2023-08-17T06:53:38;14.82;;;8.82;;
76610;SDS011;65503;48.534;9.062;2023-08-17T06:56:05;16.10;;;9.57;;
76610;SDS011;65503;48.534;9.062;2023-08-17T06:58:32;19.08;;;9.82;;
76610;SDS011;65503;48.534;9.062;2023-08-17T07:00:58;17.33;;;9.75;;
76610;SDS011;65503;48.534;9.062;2023-08-17T07:03:25;15.35;;;8.50;;
76610;SDS011;65503;48.534;9.062;2023-08-17T07:05:51;13.77;;;9.20;;
76610;SDS011;65503;48.534;9.062;2023-08-17T07:08:18;17.48;;;11.05;;
76610;SDS011;65503;48.534;9.062;2023-08-17T07:10:45;20.05;;;10.50;;
76610;SDS011;65503;48.534;9.062;2023-08-17T07:13:12;19.10;;;11.95;;
76610;SDS011;65503;48.534;9.062;2023-08-17T07:15:38;18.05;;;10.40;;
76610;SDS011;65503;48.534;9.062;2023-08-17T07:18:05;14.77;;;9.35;;
76610;SDS011;65503;48.534;9.062;2023-08-17T07:20:32;15.25;;;9.75;;
76610;SDS011;65503;48.534;9.062;2023-08-17T07:22:59;16.83;;;9.32;;
76610;SDS011;65503;48.534;9.062;2023-08-17T07:25:25;16.15;;;9.95;;
76610;SDS011;65503;48.534;9.062;2023-08-17T07:30:19;18.33;;;10.68;;
76610;SDS011;65503;48.534;9.062;2023-08-17T07:32:47;17.08;;;10.52;;
76610;SDS011;65503;48.534;9.062;2023-08-17T07:35:14;15.52;;;10.35;;
76610;SDS011;65503;48.534;9.062;2023-08-17T07:37:41;14.88;;;9.95;;
76610;SDS011;65503;48.534;9.062;2023-08-17T07:40:09;16.20;;;10.20;;
76610;SDS011;65503;48.534;9.062;2023-08-17T07:42:36;12.57;;;7.60;;
76610;SDS011;65503;48.534;9.062;2023-08-17T07:45:04;13.77;;;8.15;;
76610;SDS011;65503;48.534;9.062;2023-08-17T07:47:34;16.23;;;8.95;;
76610;SDS011;65503;48.534;9.062;2023-08-17T07:50:03;14.35;;;9.07;;
76610;SDS011;65503;48.534;9.062;2023-08-17T07:52:31;15.90;;;8.98;;
76610;SDS011;65503;48.534;9.062;2023-08-17T07:54:57;14.07;;;9.13;;
76610;SDS011;65503;48.534;9.062;2023-08-17T07:57:24;15.63;;;9.95;;
76610;SDS011;65503;48.534;9.062;2023-08-17T08:02:17;12.63;;;8.60;;
76610;SDS011;65503;48.534;9.062;2023-08-17T08:04:44;12.60;;;8.20;;
76610;SDS011;65503;48.534;9.062;2023-08-17T08:07:11;13.55;;;9.50;;
76610;SDS011;65503;48.534;9.062;2023-08-17T08:09:37;12.82;;;8.88;;
76610;SDS011;65503;48.534;9.062;2023-08-17T08:12:04;21.33;;;9.90;;
76610;SDS011;65503;48.534;9.062;2023-08-17T08:14:31;14.60;;;8.90;;
76610;SDS011;65503;48.534;9.062;2023-08-17T08:16:58;13.20;;;8.75;;
76610;SDS011;65503;48.534;9.062;2023-08-17T08:19:24;14.45;;;8.63;;
76610;SDS011;65503;48.534;9.062;2023-08-17T08:24:18;13.48;;;8.98;;
76610;SDS011;65503;48.534;9.062;2023-08-17T08:27:02;15.05;;;8.30;;
76610;SDS011;65503;48.534;9.062;2023-08-17T08:31:56;16.67;;;10.43;;
76610;SDS011;65503;48.534;9.062;2023-08-17T08:34:23;14.23;;;9.90;;
76610;SDS011;65503;48.534;9.062;2023-08-17T08:36:50;17.63;;;9.23;;
76610;SDS011;65503;48.534;9.062;2023-08-17T08:39:17;16.55;;;9.27;;
76610;SDS011;65503;48.534;9.062;2023-08-17T08:41:43;12.82;;;8.57;;
76610;SDS011;65503;48.534;9.062;2023-08-17T08:44:10;12.45;;;8.00;;
76610;SDS011;65503;48.534;9.062;2023-08-17T08:46:37;13.75;;;9.32;;
76610;SDS011;65503;48.534;9.062;2023-08-17T08:49:09;13.48;;;8.52;;
76610;SDS011;65503;48.534;9.062;2023-08-17T08:51:44;12.07;;;8.32;;
76610;SDS011;65503;48.534;9.062;2023-08-17T08:54:13;13.32;;;8.30;;
76610;SDS011;65503;48.534;9.062;2023-08-17T08:56:43;11.45;;;7.90;;
76610;SDS011;65503;48.534;9.062;2023-08-17T08:59:13;13.15;;;8.38;;
76610;SDS011;65503;48.534;9.062;2023-08-17T09:01:40;12.18;;;7.70;;
76610;SDS011;65503;48.534;9.062;2023-08-17T09:04:08;13.23;;;8.48;;
76610;SDS011;65503;48.534;9.062;2023-08-17T09:06:35;11.35;;;7.88;;
76610;SDS011;65503;48.534;9.062;2023-08-17T09:09:03;10.05;;;6.82;;
76610;SDS011;65503;48.534;9.062;2023-08-17T09:11:32;10.82;;;6.97;;
76610;SDS011;65503;48.534;9.062;2023-08-17T09:13:58;11.00;;;6.78;;
76610;SDS011;65503;48.534;9.062;2023-08-17T09:16:26;11.68;;;7.18;;
76610;SDS011;65503;48.534;9.062;2023-08-17T09:18:54;11.43;;;6.63;;
76610;SDS011;65503;48.534;9.062;2023-08-17T09:21:24;9.60;;;6.97;;
76610;SDS011;65503;48.534;9.062;2023-08-17T09:23:54;9.05;;;6.75;;
76610;SDS011;65503;48.534;9.062;2023-08-17T09:26:29;8.95;;;6.18;;
76610;SDS011;65503;48.534;9.062;2023-08-17T09:28:58;9.48;;;6.28;;
76610;SDS011;65503;48.534;9.062;2023-08-17T09:31:26;11.07;;;6.63;;
76610;SDS011;65503;48.534;9.062;2023-08-17T09:33:53;10.75;;;6.57;;
76610;SDS011;65503;48.534;9.062;2023-08-17T09:36:20;11.75;;;7.38;;
76610;SDS011;65503;48.534;9.062;2023-08-17T09:38:50;10.32;;;5.82;;
76610;SDS011;65503;48.534;9.062;2023-08-17T09:41:17;9.32;;;5.72;;
76610;SDS011;65503;48.534;9.062;2023-08-17T09:43:48;7.30;;;5.40;;
76610;SDS011;65503;48.534;9.062;2023-08-17T09:46:15;13.15;;;7.80;;
76610;SDS011;65503;48.534;9.062;2023-08-17T09:48:43;10.00;;;6.18;;
76610;SDS011;65503;48.534;9.062;2023-08-17T09:51:10;9.65;;;6.47;;
76610;SDS011;65503;48.534;9.062;2023-08-17T09:53:40;9.02;;;5.45;;
76610;SDS011;65503;48.534;9.062;2023-08-17T09:58:43;7.97;;;4.85;;
76610;SDS011;65503;48.534;9.062;2023-08-17T10:03:37;7.63;;;5.22;;
76610;SDS011;65503;48.534;9.062;2023-08-17T10:06:09;8.70;;;5.15;;
76610;SDS011;65503;48.534;9.062;2023-08-17T10:08:39;7.47;;;5.18;;
76610;SDS011;65503;48.534;9.062;2023-08-17T10:11:10;6.95;;;4.80;;
76610;SDS011;65503;48.534;9.062;2023-08-17T10:13:48;7.28;;;4.78;;
76610;SDS011;65503;48.534;9.062;2023-08-17T10:21:27;7.88;;;5.10;;
76610;SDS011;65503;48.534;9.062;2023-08-17T10:23:56;6.90;;;4.63;;
76610;SDS011;65503;48.534;9.062;2023-08-17T10:26:23;7.53;;;4.72;;
76610;SDS011;65503;48.534;9.062;2023-08-17T10:28:51;9.68;;;5.05;;
76610;SDS011;65503;48.534;9.062;2023-08-17T10:31:18;10.60;;;4.93;;
76610;SDS011;65503;48.534;9.062;2023-08-17T10:33:46;7.20;;;5.60;;
76610;SDS011;65503;48.534;9.062;2023-08-17T10:36:14;6.30;;;4.38;;
76610;SDS011;65503;48.534;9.062;2023-08-17T10:38:42;9.20;;;5.40;;
76610;SDS011;65503;48.534;9.062;2023-08-17T10:46:20;8.30;;;5.25;;
76610;SDS011;65503;48.534;9.062;2023-08-17T10:48:47;7.75;;;5.47;;
76610;SDS011;65503;48.534;9.062;2023-08-17T10:53:43;10.60;;;6.00;;
76610;SDS011;65503;48.534;9.062;2023-08-17T10:56:11;7.57;;;5.13;;
76610;SDS011;65503;48.534;9.062;2023-08-17T10:58:41;9.13;;;5.15;;
76610;SDS011;65503;48.534;9.062;2023-08-17T11:01:08;6.60;;;4.90;;
76610;SDS011;65503;48.534;9.062;2023-08-17T11:06:15;9.73;;;5.03;;
76610;SDS011;65503;48.534;9.062;2023-08-17T11:08:53;7.28;;;5.57;;
76610;SDS011;65503;48.534;9.062;2023-08-17T11:11:22;8.15;;;5.68;;
76610;SDS011;65503;48.534;9.062;2023-08-17T11:13:49;9.05;;;5.40;;
76610;SDS011;65503;48.534;9.062;2023-08-17T11:16:22;9.77;;;4.60;;
76610;SDS011;65503;48.534;9.062;2023-08-17T11:18:49;7.13;;;4.90;;
76610;SDS011;65503;48.534;9.062;2023-08-17T11:21:17;6.82;;;4.93;;
76610;SDS011;65503;48.534;9.062;2023-08-17T11:23:45;9.32;;;5.43;;
76610;SDS011;65503;48.534;9.062;2023-08-17T11:26:15;5.80;;;3.92;;
76610;SDS011;65503;48.534;9.062;2023-08-17T11:28:42;8.80;;;5.45;;
76610;SDS011;65503;48.534;9.062;2023-08-17T11:31:11;7.55;;;4.30;;
76610;SDS011;65503;48.534;9.062;2023-08-17T11:33:40;9.00;;;5.20;;
76610;SDS011;65503;48.534;9.062;2023-08-17T11:38:37;6.55;;;4.88;;
76610;SDS011;65503;48.534;9.062;2023-08-17T11:41:08;7.53;;;5.22;;
76610;SDS011;65503;48.534;9.062;2023-08-17T11:43:36;8.23;;;4.40;;
76610;SDS011;65503;48.534;9.062;2023-08-17T11:46:03;7.47;;;4.93;;
76610;SDS011;65503;48.534;9.062;2023-08-17T11:48:31;7.53;;;4.70;;
76610;SDS011;65503;48.534;9.062;2023-08-17T11:51:01;6.47;;;4.78;;
76610;SDS011;65503;48.534;9.062;2023-08-17T11:53:32;6.47;;;4.97;;
76610;SDS011;65503;48.534;9.062;2023-08-17T11:56:00;6.85;;;5.18;;
76610;SDS011;65503;48.534;9.062;2023-08-17T11:58:42;7.18;;;5.60;;
76610;SDS011;65503;48.534;9.062;2023-08-17T12:01:11;7.57;;;5.38;;
76610;SDS011;65503;48.534;9.062;2023-08-17T12:03:39;7.35;;;5.53;;
76610;SDS011;65503;48.534;9.062;2023-08-17T12:06:07;8.48;;;5.25;;
76610;SDS011;65503;48.534;9.062;2023-08-17T12:08:35;6.65;;;4.90;;
76610;SDS011;65503;48.534;9.062;2023-08-17T12:11:02;7.95;;;6.32;;
76610;SDS011;65503;48.534;9.062;2023-08-17T12:13:33;7.53;;;6.15;;
76610;SDS011;65503;48.534;9.062;2023-08-17T12:16:00;8.48;;;6.03;;
76610;SDS011;65503;48.534;9.062;2023-08-17T12:18:28;6.95;;;4.85;;
76610;SDS011;65503;48.534;9.062;2023-08-17T12:20:54;7.78;;;5.00;;
76610;SDS011;65503;48.534;9.062;2023-08-17T12:23:21;8.10;;;4.63;;
76610;SDS011;65503;48.534;9.062;2023-08-17T12:25:52;7.57;;;5.30;;
76610;SDS011;65503;48.534;9.062;2023-08-17T12:28:20;5.78;;;4.63;;
76610;SDS011;65503;48.534;9.062;2023-08-17T12:30:55;6.93;;;5.32;;
76610;SDS011;65503;48.534;9.062;2023-08-17T12:33:23;7.63;;;4.53;;
76610;SDS011;65503;48.534;9.062;2023-08-17T12:38:17;6.20;;;4.95;;
76610;SDS011;65503;48.534;9.062;2023-08-17T12:40:43;7.82;;;5.82;;
76610;SDS011;65503;48.534;9.062;2023-08-17T12:43:10;8.45;;;6.03;;
76610;SDS011;65503;48.534;9.062;2023-08-17T12:45:40;8.10;;;5.78;;
76610;SDS011;65503;48.534;9.062;2023-08-17T12:48:07;7.85;;;5.60;;
76610;SDS011;65503;48.534;9.062;2023-08-17T12:53:00;6.85;;;5.13;;
76610;SDS011;65503;48.534;9.062;2023-08-17T12:55:27;7.13;;;5.45;;
76610;SDS011;65503;48.534;9.062;2023-08-17T12:57:53;7.97;;;5.75;;
76610;SDS011;65503;48.534;9.062;2023-08-17T13:00:20;7.78;;;5.57;;
76610;SDS011;65503;48.534;9.062;2023-08-17T13:02:46;7.10;;;4.95;;
76610;SDS011;65503;48.534;9.062;2023-08-17T13:05:15;7.82;;;5.15;;
76610;SDS011;65503;48.534;9.062;2023-08-17T13:07:42;7.40;;;5.22;;
76610;SDS011;65503;48.534;9.062;2023-08-17T13:10:08;7.10;;;5.40;;
76610;SDS011;65503;48.534;9.062;2023-08-17T13:15:02;7.25;;;5.00;;
76610;SDS011;65503;48.534;9.062;2023-08-17T13:17:29;6.97;;;5.25;;
76610;SDS011;65503;48.534;9.062;2023-08-17T13:22:22;6.88;;;4.50;;
76610;SDS011;65503;48.534;9.062;2023-08-17T13:24:48;5.78;;;4.18;;
76610;SDS011;65503;48.534;9.062;2023-08-17T13:27:15;9.15;;;4.85;;
76610;SDS011;65503;48.534;9.062;2023-08-17T13:29:41;7.63;;;5.57;;
76610;SDS011;65503;48.534;9.062;2023-08-17T13:32:08;8.65;;;5.43;;
76610;SDS011;65503;48.534;9.062;2023-08-17T13:34:34;7.28;;;5.25;;
76610;SDS011;65503;48.534;9.062;2023-08-17T13:37:01;7.68;;;5.28;;
76610;SDS011;65503;48.534;9.062;2023-08-17T13:39:29;6.40;;;4.78;;
76610;SDS011;65503;48.534;9.062;2023-08-17T13:41:55;8.13;;;4.90;;
76610;SDS011;65503;48.534;9.062;2023-08-17T13:44:22;9.27;;;5.10;;
76610;SDS011;65503;48.534;9.062;2023-08-17T13:46:49;7.20;;;5.38;;
76610;SDS011;65503;48.534;9.062;2023-08-17T13:51:42;8.60;;;6.35;;
76610;SDS011;65503;48.534;9.062;2023-08-17T13:54:08;10.95;;;5.00;;
76610;SDS011;65503;48.534;9.062;2023-08-17T13:56:35;7.28;;;5.15;;
76610;SDS011;65503;48.534;9.062;2023-08-17T13:59:02;8.30;;;5.15;;
76610;SDS011;65503;48.534;9.062;2023-08-17T14:03:55;6.80;;;5.10;;
76610;SDS011;65503;48.534;9.062;2023-08-17T14:06:21;8.57;;;6.20;;
76610;SDS011;65503;48.534;9.062;2023-08-17T14:08:48;7.53;;;5.97;;
76610;SDS011;65503;48.534;9.062;2023-08-17T14:11:15;9.82;;;6.45;;
76610;SDS011;65503;48.534;9.062;2023-08-17T14:13:41;7.45;;;5.07;;
76610;SDS011;65503;48.534;9.062;2023-08-17T14:16:08;10.10;;;6.00;;
76610;SDS011;65503;48.534;9.062;2023-08-17T14:18:34;7.30;;;5.28;;
76610;SDS011;65503;48.534;9.062;2023-08-17T14:21:01;7.70;;;5.22;;
76610;SDS011;65503;48.534;9.062;2023-08-17T14:23:27;7.60;;;5.68;;
76610;SDS011;65503;48.534;9.062;2023-08-17T14:28:21;8.30;;;4.80;;
76610;SDS011;65503;48.534;9.062;2023-08-17T14:30:47;8.45;;;5.20;;
76610;SDS011;65503;48.534;9.062;2023-08-17T14:33:17;6.97;;;4.70;;
76610;SDS011;65503;48.534;9.062;2023-08-17T14:35:43;8.82;;;6.20;;
76610;SDS011;65503;48.534;9.062;2023-08-17T14:40:43;7.30;;;5.03;;
76610;SDS011;65503;48.534;9.062;2023-08-17T14:43:11;7.32;;;4.65;;
76610;SDS011;65503;48.534;9.062;2023-08-17T14:45:40;9.40;;;5.22;;
76610;SDS011;65503;48.534;9.062;2023-08-17T14:48:07;10.80;;;5.53;;
76610;SDS011;65503;48.534;9.062;2023-08-17T14:50:34;8.73;;;5.40;;
76610;SDS011;65503;48.534;9.062;2023-08-17T14:53:02;8.50;;;5.32;;
76610;SDS011;65503;48.534;9.062;2023-08-17T14:55:30;9.25;;;5.93;;
76610;SDS011;65503;48.534;9.062;2023-08-17T14:57:57;7.82;;;5.40;;
76610;SDS011;65503;48.534;9.062;2023-08-17T15:00:28;7.55;;;5.15;;
76610;SDS011;65503;48.534;9.062;2023-08-17T15:02:58;7.50;;;5.32;;
76610;SDS011;65503;48.534;9.062;2023-08-17T15:05:26;8.50;;;5.25;;
76610;SDS011;65503;48.534;9.062;2023-08-17T15:07:54;7.30;;;5.50;;
76610;SDS011;65503;48.534;9.062;2023-08-17T15:10:20;13.77;;;6.28;;
76610;SDS011;65503;48.534;9.062;2023-08-17T15:12:47;7.75;;;6.00;;
76610;SDS011;65503;48.534;9.062;2023-08-17T15:17:46;9.48;;;5.90;;
76610;SDS011;65503;48.534;9.062;2023-08-17T15:20:13;8.13;;;5.65;;
76610;SDS011;65503;48.534;9.062;2023-08-17T15:22:39;8.05;;;5.68;;
76610;SDS011;65503;48.534;9.062;2023-08-17T15:25:06;8.40;;;5.95;;
76610;SDS011;65503;48.534;9.062;2023-08-17T15:27:33;10.30;;;6.03;;
76610;SDS011;65503;48.534;9.062;2023-08-17T15:32:26;8.57;;;5.75;;
76610;SDS011;65503;48.534;9.062;2023-08-17T15:37:22;10.25;;;6.10;;
76610;SDS011;65503;48.534;9.062;2023-08-17T15:39:49;7.75;;;5.72;;
76610;SDS011;65503;48.534;9.062;2023-08-17T15:42:16;8.85;;;5.93;;
76610;SDS011;65503;48.534;9.062;2023-08-17T15:44:43;9.57;;;6.80;;
76610;SDS011;65503;48.534;9.062;2023-08-17T15:52:03;11.27;;;6.93;;
76610;SDS011;65503;48.534;9.062;2023-08-17T15:54:32;10.88;;;6.93;;
76610;SDS011;65503;48.534;9.062;2023-08-17T15:57:02;8.52;;;7.28;;